Alkin Kalkavan — TCOL6 — position and weather

sailwx.info

Track history (hours):
 
Tides and Currents Weather Stations Pressure Air Temp Water Temp Dewpoint Dewpoint Depression Visibility Wind Speed Wind Dir Waves Ship Positions

Alkin Kalkavan

Last reported at 2014-Dec-17 13:28 UTC. Time now 2014-Dec-18 18:23 UTC.
Position N 37°23' E 026°49'.

Length 148 m; draft 6.3 m.

Type: Ship (hazmat cat A). MMSI: 271000905.

Date/timePositionNaut miles runAvg speedWind from/ knotsBaromVisibWave heightAir tempDewpointWater temp
2014-Dec-17 13:28N 37°23' E 026°49'2912.7
2014-Dec-17 11:11N 37°47' E 026°28'  
2014-Dec-11 03:19N 38°09' E 025°54'3415.9
2014-Dec-11 01:09N 37°45' E 026°26'1016.2
2014-Dec-11 00:32N 37°38' E 026°35'48414.2
2014-Dec-09 14:27N 32°57' E 034°37'1414.6
2014-Dec-09 13:30N 32°54' E 034°53'3 0.2
2014-Dec-08 20:07N 32°51' E 034°51'814.6
2014-Dec-08 19:33N 32°43' E 034°48'1514.8
2014-Dec-08 18:33N 32°29' E 034°43'1514.7
2014-Dec-08 17:33N 32°15' E 034°38'1915.3
2014-Dec-08 16:17N 31°57' E 034°32'19 0.8
2014-Dec-07 16:04N 32°07' E 034°13'  
Track history (hours):
 
Tides and Currents Weather Stations Pressure Air Temp Water Temp Dewpoint Dewpoint Depression Visibility Wind Speed Wind Dir Waves Ship Positions

Alkin Kalkavan

Last reported at 2014-Dec-17 13:28 UTC. Time now 2014-Dec-18 18:23 UTC.
Position N 37°23' E 026°49'.

Length 148 m; draft 6.3 m.

Type: Ship (hazmat cat A). MMSI: 271000905.

Date/timePositionNaut miles runAvg speedWind from/ knotsBaromVisibWave heightAir tempDewpointWater temp
2014-Dec-17 13:28N 37°23' E 026°49'2912.7
2014-Dec-17 11:11N 37°47' E 026°28'  
2014-Dec-11 03:19N 38°09' E 025°54'3415.9
2014-Dec-11 01:09N 37°45' E 026°26'1016.2
2014-Dec-11 00:32N 37°38' E 026°35'48414.2
2014-Dec-09 14:27N 32°57' E 034°37'1414.6
2014-Dec-09 13:30N 32°54' E 034°53'3 0.2
2014-Dec-08 20:07N 32°51' E 034°51'814.6
2014-Dec-08 19:33N 32°43' E 034°48'1514.8
2014-Dec-08 18:33N 32°29' E 034°43'1514.7
2014-Dec-08 17:33N 32°15' E 034°38'1915.3
2014-Dec-08 16:17N 31°57' E 034°32'19 0.8
2014-Dec-07 16:04N 32°07' E 034°13'  

Dump ship's entire track history